createdAt,value
2023-04-06T00:02:11.112Z,3.80
2023-04-06T00:04:37.737Z,4.03
2023-04-06T00:07:04.439Z,4.13
2023-04-06T00:09:30.984Z,4.32
2023-04-06T00:11:58.703Z,4.05
2023-04-06T00:14:25.422Z,3.92
2023-04-06T00:16:52.027Z,4.28
2023-04-06T00:19:18.555Z,4.47
2023-04-06T00:21:45.527Z,4.30
2023-04-06T00:24:12.183Z,4.25
2023-04-06T00:26:38.700Z,4.25
2023-04-06T00:29:05.439Z,4.05
2023-04-06T00:31:32.019Z,4.68
2023-04-06T00:33:59.211Z,4.00
2023-04-06T00:36:26.671Z,4.18
2023-04-06T00:38:53.369Z,4.70
2023-04-06T00:41:21.582Z,4.35
2023-04-06T00:43:48.271Z,4.45
2023-04-06T00:46:15.058Z,4.18
2023-04-06T00:48:41.833Z,4.72
2023-04-06T00:51:08.393Z,4.50
2023-04-06T00:53:34.926Z,4.32
2023-04-06T00:56:02.334Z,4.40
2023-04-06T00:58:38.816Z,4.45
2023-04-06T01:01:07.722Z,3.95
2023-04-06T01:03:35.824Z,4.03
2023-04-06T01:06:22.684Z,4.20
2023-04-06T01:09:18.166Z,4.20
2023-04-06T01:12:05.039Z,4.68
2023-04-06T01:14:54.317Z,4.93
2023-04-06T01:17:41.598Z,4.32
2023-04-06T01:20:33.172Z,4.60
2023-04-06T01:23:01.999Z,4.30
2023-04-06T01:25:28.829Z,4.95
2023-04-06T01:28:06.242Z,4.88
2023-04-06T01:30:55.270Z,4.53
2023-04-06T01:33:40.876Z,4.47
2023-04-06T01:38:37.484Z,4.82
2023-04-06T01:41:04.314Z,4.80
2023-04-06T01:43:38.333Z,5.10
2023-04-06T01:46:07.822Z,4.40
2023-04-06T01:48:37.443Z,4.80
2023-04-06T01:51:13.890Z,4.95
2023-04-06T01:53:49.275Z,4.95
2023-04-06T01:56:17.166Z,4.90
2023-04-06T01:58:52.553Z,4.55
2023-04-06T02:01:19.631Z,5.15
2023-04-06T02:03:53.000Z,5.03
2023-04-06T02:06:19.730Z,4.47
2023-04-06T02:08:46.680Z,5.40
2023-04-06T02:11:13.622Z,4.70
2023-04-06T02:13:45.403Z,5.10
2023-04-06T02:16:12.440Z,5.55
2023-04-06T02:18:39.052Z,5.10
2023-04-06T02:21:05.798Z,5.20
2023-04-06T02:23:32.394Z,5.35
2023-04-06T02:25:58.954Z,5.40
2023-04-06T02:28:25.632Z,5.60
2023-04-06T02:30:52.209Z,5.28
2023-04-06T02:33:19.981Z,5.72
2023-04-06T02:35:47.922Z,6.32
2023-04-06T02:38:14.531Z,5.75
2023-04-06T02:40:41.566Z,6.40
2023-04-06T02:43:21.527Z,5.88
2023-04-06T02:45:51.497Z,6.78
2023-04-06T02:48:19.481Z,6.38
2023-04-06T02:50:46.151Z,5.72
2023-04-06T02:53:12.976Z,5.90
2023-04-06T02:55:40.512Z,5.88
2023-04-06T02:58:07.450Z,6.15
2023-04-06T03:00:43.741Z,5.65
2023-04-06T03:03:10.422Z,6.03
2023-04-06T03:05:37.706Z,5.90
2023-04-06T03:08:05.176Z,6.15
2023-04-06T03:10:42.274Z,5.75
2023-04-06T03:13:08.996Z,6.32
2023-04-06T03:16:02.118Z,6.30
2023-04-06T03:18:29.420Z,6.50
2023-04-06T03:20:57.310Z,6.40
2023-04-06T03:23:29.768Z,5.63
2023-04-06T03:25:59.943Z,5.63
2023-04-06T03:28:27.332Z,6.88
2023-04-06T03:30:59.873Z,5.70
2023-04-06T03:34:01.796Z,6.72
2023-04-06T03:36:32.159Z,6.22
2023-04-06T03:38:59.685Z,6.53
2023-04-06T03:41:26.197Z,6.60
2023-04-06T03:44:01.668Z,6.72
2023-04-06T03:46:28.419Z,6.28
2023-04-06T03:48:57.612Z,7.38
2023-04-06T03:51:24.677Z,6.28
2023-04-06T03:53:51.184Z,6.10
2023-04-06T03:56:17.706Z,6.60
2023-04-06T03:58:46.186Z,6.93
2023-04-06T04:01:13.211Z,7.22
2023-04-06T04:03:39.856Z,6.55
2023-04-06T04:06:06.708Z,6.80
2023-04-06T04:08:33.344Z,7.85
2023-04-06T04:11:00.309Z,8.07
2023-04-06T04:13:26.907Z,8.52
2023-04-06T04:15:54.125Z,6.75
2023-04-06T04:18:20.720Z,8.25
2023-04-06T04:20:47.349Z,7.80
2023-04-06T04:23:14.044Z,8.13
2023-04-06T04:25:41.756Z,8.63
2023-04-06T04:28:08.268Z,7.43
2023-04-06T04:30:36.248Z,6.38
2023-04-06T04:33:06.939Z,7.10
2023-04-06T04:35:33.466Z,7.28
2023-04-06T04:38:00.409Z,7.00
2023-04-06T04:40:27.322Z,7.88
2023-04-06T04:43:02.124Z,8.52
2023-04-06T04:45:32.240Z,7.90
2023-04-06T04:48:06.027Z,7.78
2023-04-06T04:50:45.639Z,8.27
2023-04-06T04:53:13.938Z,7.38
2023-04-06T04:55:41.878Z,7.32
2023-04-06T04:58:09.936Z,7.75
2023-04-06T05:00:47.642Z,6.95
2023-04-06T05:03:26.833Z,6.55
2023-04-06T05:06:00.338Z,7.25
2023-04-06T05:08:31.117Z,7.57
2023-04-06T05:10:58.097Z,7.07
2023-04-06T05:13:25.338Z,7.18
2023-04-06T05:15:54.170Z,6.82
2023-04-06T05:18:25.079Z,7.43
2023-04-06T05:20:52.797Z,6.93
2023-04-06T05:23:24.483Z,7.03
2023-04-06T05:25:52.266Z,7.53
2023-04-06T05:28:22.067Z,7.55
2023-04-06T05:30:48.770Z,7.85
2023-04-06T05:33:16.570Z,7.60
2023-04-06T05:36:07.976Z,6.70
2023-04-06T05:38:37.834Z,7.15
2023-04-06T05:41:14.772Z,7.38
2023-04-06T05:43:42.375Z,7.05
2023-04-06T05:46:08.923Z,8.07
2023-04-06T05:48:35.995Z,8.75
2023-04-06T05:51:07.081Z,8.13
2023-04-06T05:53:42.577Z,7.53
2023-04-06T05:56:09.255Z,7.28
2023-04-06T05:58:35.960Z,7.63
2023-04-06T06:01:03.999Z,7.82
2023-04-06T06:03:38.086Z,7.40
2023-04-06T06:06:05.662Z,7.10
2023-04-06T06:08:54.147Z,7.05
2023-04-06T06:11:21.194Z,7.25
2023-04-06T06:13:49.445Z,7.05
2023-04-06T06:16:16.117Z,6.78
2023-04-06T06:18:45.945Z,7.43
2023-04-06T06:21:13.317Z,6.72
2023-04-06T06:23:40.580Z,7.25
2023-04-06T06:26:07.409Z,7.55
2023-04-06T06:28:34.214Z,7.53
2023-04-06T06:31:02.005Z,7.05
2023-04-06T06:33:30.536Z,7.13
2023-04-06T06:35:58.427Z,6.90
2023-04-06T06:38:24.939Z,6.97
2023-04-06T06:40:52.158Z,6.40
2023-04-06T06:43:19.840Z,6.82
2023-04-06T06:45:52.298Z,7.22
2023-04-06T06:48:18.885Z,6.63
2023-04-06T06:50:45.659Z,7.57
2023-04-06T06:53:13.355Z,6.90
2023-04-06T06:55:39.930Z,7.70
2023-04-06T06:58:07.070Z,7.88
2023-04-06T07:00:33.823Z,7.90
2023-04-06T07:03:00.545Z,7.43
2023-04-06T07:05:29.005Z,7.72
2023-04-06T07:07:57.827Z,6.70
2023-04-06T07:10:25.843Z,7.32
2023-04-06T07:12:52.532Z,7.35
2023-04-06T07:15:19.159Z,7.47
2023-04-06T07:17:46.270Z,6.95
2023-04-06T07:20:13.599Z,6.88
2023-04-06T07:22:41.355Z,7.28
2023-04-06T07:25:08.697Z,7.13
2023-04-06T07:27:35.360Z,7.28
2023-04-06T07:30:02.773Z,6.43
2023-04-06T07:32:29.452Z,6.97
2023-04-06T07:34:57.076Z,7.70
2023-04-06T07:37:24.263Z,7.38
2023-04-06T07:39:53.713Z,6.78
2023-04-06T07:42:20.921Z,6.13
2023-04-06T07:44:49.558Z,6.05
2023-04-06T07:47:16.795Z,6.90
2023-04-06T07:49:43.424Z,6.65
2023-04-06T07:52:10.369Z,6.78
2023-04-06T07:54:37.485Z,7.40
2023-04-06T07:57:04.096Z,6.60
2023-04-06T07:59:30.731Z,7.35
2023-04-06T08:01:57.390Z,7.72
2023-04-06T08:04:24.162Z,7.47
2023-04-06T08:06:50.672Z,8.05
2023-04-06T08:09:17.199Z,7.65
2023-04-06T08:11:45.370Z,6.22
2023-04-06T08:14:11.899Z,7.82
2023-04-06T08:16:38.420Z,7.65
2023-04-06T08:19:05.602Z,7.80
2023-04-06T08:21:32.175Z,8.27
2023-04-06T08:23:59.076Z,6.93
2023-04-06T08:26:26.388Z,7.95
2023-04-06T08:28:52.898Z,7.70
2023-04-06T08:31:19.565Z,6.90
2023-04-06T08:33:46.289Z,7.47
2023-04-06T08:36:14.737Z,7.13
2023-04-06T08:38:42.311Z,7.18
2023-04-06T08:41:10.032Z,7.97
2023-04-06T08:43:45.235Z,6.90
2023-04-06T08:46:12.486Z,7.40
2023-04-06T08:48:43.962Z,7.00
2023-04-06T08:51:11.226Z,6.80
2023-04-06T08:53:38.195Z,6.60
2023-04-06T08:56:05.174Z,6.50
2023-04-06T08:58:38.508Z,6.50
2023-04-06T09:01:12.349Z,6.85
2023-04-06T09:03:41.539Z,6.60
2023-04-06T09:06:09.729Z,6.55
2023-04-06T09:08:38.801Z,6.20
2023-04-06T09:11:05.976Z,6.07
2023-04-06T09:13:44.772Z,6.28
2023-04-06T09:16:11.403Z,6.40
2023-04-06T09:18:38.137Z,6.30
2023-04-06T09:21:07.074Z,6.35
2023-04-06T09:23:33.816Z,6.40
2023-04-06T09:26:13.624Z,6.22
2023-04-06T09:28:56.118Z,5.93
2023-04-06T09:31:23.685Z,5.82
2023-04-06T09:33:50.808Z,6.70
2023-04-06T09:36:17.397Z,5.85
2023-04-06T09:38:58.587Z,6.13
2023-04-06T09:41:36.432Z,6.20
2023-04-06T09:44:12.839Z,5.93
2023-04-06T09:46:57.805Z,6.53
2023-04-06T09:49:28.965Z,6.30
2023-04-06T09:52:00.722Z,6.10
2023-04-06T09:54:30.521Z,6.47
2023-04-06T09:57:24.730Z,6.30
2023-04-06T10:00:04.613Z,6.55
2023-04-06T10:02:35.859Z,6.68
2023-04-06T10:05:20.549Z,6.88
2023-04-06T10:10:23.716Z,6.13
2023-04-06T10:12:50.841Z,6.25
2023-04-06T10:15:19.173Z,5.50
2023-04-06T10:17:47.768Z,7.20
2023-04-06T10:20:24.339Z,6.60
2023-04-06T10:23:15.093Z,6.20
2023-04-06T10:25:53.144Z,6.53
2023-04-06T10:28:21.124Z,6.30
2023-04-06T10:30:47.820Z,6.22
2023-04-06T10:33:21.167Z,6.05
2023-04-06T10:35:48.108Z,5.57
2023-04-06T10:38:15.325Z,6.15
2023-04-06T10:40:48.011Z,5.55
2023-04-06T10:43:23.320Z,5.60
2023-04-06T10:45:57.917Z,5.57
2023-04-06T10:48:25.042Z,5.60
2023-04-06T10:50:54.940Z,5.03
2023-04-06T10:53:28.872Z,5.78
2023-04-06T10:55:57.205Z,5.50
2023-04-06T10:58:28.267Z,5.28
2023-04-06T11:00:56.223Z,5.75
2023-04-06T11:03:22.896Z,5.25
2023-04-06T11:05:51.222Z,5.70
2023-04-06T11:08:24.764Z,5.45
2023-04-06T11:10:51.563Z,5.47
2023-04-06T11:13:18.462Z,5.53
2023-04-06T11:15:45.260Z,5.95
2023-04-06T11:18:12.486Z,5.18
2023-04-06T11:20:39.217Z,5.35
2023-04-06T11:23:05.982Z,4.40
2023-04-06T11:25:33.479Z,4.07
2023-04-06T11:28:00.375Z,4.32
2023-04-06T11:30:27.215Z,4.20
2023-04-06T11:33:02.046Z,4.13
2023-04-06T11:35:32.372Z,4.30
2023-04-06T11:38:00.470Z,3.95
2023-04-06T11:40:28.767Z,3.83
2023-04-06T11:42:56.293Z,3.95
2023-04-06T11:45:23.490Z,5.30
2023-04-06T11:48:01.665Z,4.50
2023-04-06T11:50:36.727Z,4.05
2023-04-06T11:53:03.916Z,4.07
2023-04-06T11:55:38.456Z,4.60
2023-04-06T11:58:05.257Z,4.50
2023-04-06T12:00:35.464Z,4.07
2023-04-06T12:03:02.252Z,4.28
2023-04-06T12:05:28.970Z,4.18
2023-04-06T12:07:55.669Z,4.55
2023-04-06T12:10:22.340Z,5.43
2023-04-06T12:12:48.820Z,5.03
2023-04-06T12:15:15.638Z,4.50
2023-04-06T12:17:42.446Z,4.30
2023-04-06T12:20:18.010Z,4.50
2023-04-06T12:22:51.600Z,4.78
2023-04-06T12:25:18.347Z,4.97
2023-04-06T12:27:44.842Z,5.55
2023-04-06T12:30:12.057Z,4.78
2023-04-06T12:32:38.803Z,5.80
2023-04-06T12:35:05.664Z,5.22
2023-04-06T12:37:34.776Z,5.00
2023-04-06T12:40:02.257Z,5.15
2023-04-06T12:42:28.954Z,5.40
2023-04-06T12:44:55.551Z,6.20
2023-04-06T12:47:23.765Z,5.55
2023-04-06T12:49:51.015Z,6.47
2023-04-06T12:52:17.807Z,5.57
2023-04-06T12:54:44.440Z,5.55
2023-04-06T12:57:11.014Z,6.78
2023-04-06T12:59:38.247Z,6.40
2023-04-06T13:02:05.890Z,5.85
2023-04-06T13:04:32.559Z,5.40
2023-04-06T13:06:59.107Z,7.22
2023-04-06T13:09:25.747Z,6.82
2023-04-06T13:11:52.558Z,5.70
2023-04-06T13:14:19.098Z,5.60
2023-04-06T13:16:45.897Z,6.15
2023-04-06T13:19:12.594Z,6.22
2023-04-06T13:21:40.523Z,5.75
2023-04-06T13:24:07.184Z,6.80
2023-04-06T13:26:33.802Z,6.25
2023-04-06T13:29:03.703Z,5.53
2023-04-06T13:31:30.618Z,5.45
2023-04-06T13:33:57.203Z,5.40
2023-04-06T13:36:23.958Z,6.13
2023-04-06T13:38:50.849Z,5.75
2023-04-06T13:41:22.414Z,5.22
2023-04-06T13:43:49.658Z,5.30
2023-04-06T13:46:16.395Z,5.35
2023-04-06T13:48:43.427Z,5.00
2023-04-06T13:51:11.317Z,5.25
2023-04-06T13:53:39.552Z,5.35
2023-04-06T13:56:08.173Z,5.10
2023-04-06T13:58:34.728Z,5.80
2023-04-06T14:01:11.039Z,6.32
2023-04-06T14:03:38.156Z,6.30
2023-04-06T14:08:44.381Z,5.53
2023-04-06T14:11:15.152Z,5.20
2023-04-06T14:13:41.676Z,5.60
2023-04-06T14:16:08.411Z,5.43
2023-04-06T14:18:35.337Z,5.40
2023-04-06T14:21:02.015Z,4.93
2023-04-06T14:23:29.273Z,5.63
2023-04-06T14:26:04.542Z,5.45
2023-04-06T14:28:31.796Z,5.53
2023-04-06T14:31:04.009Z,6.43
2023-04-06T14:33:31.582Z,7.15
2023-04-06T14:35:58.055Z,7.43
2023-04-06T14:38:24.536Z,7.00
2023-04-06T14:40:51.096Z,5.85
2023-04-06T14:43:17.705Z,6.90
2023-04-06T14:45:44.311Z,5.75
2023-04-06T14:48:12.923Z,6.53
2023-04-06T14:50:47.145Z,6.55
2023-04-06T14:53:14.164Z,6.45
2023-04-06T14:55:42.082Z,6.70
2023-04-06T14:58:08.603Z,5.93
2023-04-06T15:00:35.385Z,6.30
2023-04-06T15:03:02.193Z,6.47
2023-04-06T15:05:28.722Z,6.57
2023-04-06T15:07:55.348Z,6.50
2023-04-06T15:10:21.871Z,6.18
2023-04-06T15:12:48.314Z,6.60
2023-04-06T15:15:15.098Z,7.22
2023-04-06T15:17:41.544Z,6.47
2023-04-06T15:20:08.355Z,6.40
2023-04-06T15:22:34.976Z,6.60
2023-04-06T15:25:01.674Z,5.82
2023-04-06T15:27:28.119Z,6.05
2023-04-06T15:29:54.883Z,5.60
2023-04-06T15:32:21.637Z,5.13
2023-04-06T15:34:48.406Z,5.22
2023-04-06T15:37:15.110Z,5.82
2023-04-06T15:39:41.702Z,5.80
2023-04-06T15:42:08.444Z,6.53
2023-04-06T15:44:34.972Z,6.15
2023-04-06T15:47:01.514Z,5.30
2023-04-06T15:49:28.667Z,5.78
2023-04-06T15:51:55.201Z,4.90
2023-04-06T15:54:21.833Z,5.57
2023-04-06T15:56:48.948Z,6.57
2023-04-06T15:59:16.616Z,6.07
2023-04-06T16:01:43.441Z,5.80
2023-04-06T16:04:11.555Z,6.20
2023-04-06T16:06:38.416Z,6.57
2023-04-06T16:09:04.957Z,6.43
2023-04-06T16:11:32.600Z,6.82
2023-04-06T16:13:59.594Z,5.55
2023-04-06T16:16:27.273Z,5.70
2023-04-06T16:18:53.879Z,5.30
2023-04-06T16:21:20.385Z,5.45
2023-04-06T16:23:47.351Z,5.05
2023-04-06T16:26:15.557Z,4.63
2023-04-06T16:28:42.738Z,4.00
2023-04-06T16:31:17.766Z,4.22
2023-04-06T16:33:44.582Z,4.03
2023-04-06T16:36:12.138Z,3.90
2023-04-06T16:38:38.762Z,3.45
2023-04-06T16:41:05.301Z,3.80
2023-04-06T16:43:32.450Z,4.13
2023-04-06T16:45:59.152Z,4.60
2023-04-06T16:48:25.789Z,4.93
2023-04-06T16:50:52.441Z,4.47
2023-04-06T16:53:18.880Z,4.47
2023-04-06T16:55:45.378Z,5.13
2023-04-06T16:58:12.013Z,4.53
2023-04-06T17:00:38.415Z,3.50
2023-04-06T17:03:05.242Z,3.13
2023-04-06T17:05:34.565Z,2.90
2023-04-06T17:08:01.011Z,2.80
2023-04-06T17:10:33.187Z,2.40
2023-04-06T17:13:03.711Z,2.15
2023-04-06T17:15:31.730Z,1.85
2023-04-06T17:17:58.540Z,2.15
2023-04-06T17:20:25.069Z,2.63
2023-04-06T17:22:51.816Z,3.20
2023-04-06T17:25:18.742Z,2.72
2023-04-06T17:27:45.497Z,3.03
2023-04-06T17:30:12.701Z,3.15
2023-04-06T17:32:39.508Z,2.70
2023-04-06T17:35:06.417Z,2.72
2023-04-06T17:37:33.042Z,2.78
2023-04-06T17:39:59.730Z,2.60
2023-04-06T17:42:26.434Z,2.70
2023-04-06T17:44:53.330Z,3.20
2023-04-06T17:47:20.059Z,2.40
2023-04-06T17:49:46.926Z,2.70
2023-04-06T17:52:13.481Z,2.80
2023-04-06T17:54:39.908Z,2.55
2023-04-06T17:57:07.631Z,2.58
2023-04-06T17:59:34.519Z,2.90
2023-04-06T18:02:02.963Z,3.20
2023-04-06T18:04:29.778Z,3.60
2023-04-06T18:06:56.338Z,4.03
2023-04-06T18:09:22.805Z,4.70
2023-04-06T18:11:49.425Z,4.18
2023-04-06T18:14:16.371Z,3.90
2023-04-06T18:16:43.242Z,3.78
2023-04-06T18:19:09.815Z,4.90
2023-04-06T18:21:36.491Z,4.78
2023-04-06T18:24:05.125Z,4.72
2023-04-06T18:26:33.685Z,4.25
2023-04-06T18:29:00.617Z,5.28
2023-04-06T18:31:27.465Z,4.78
2023-04-06T18:33:54.751Z,5.40
2023-04-06T18:36:21.692Z,5.45
2023-04-06T18:38:48.823Z,5.68
2023-04-06T18:41:16.775Z,6.07
2023-04-06T18:43:43.387Z,6.38
2023-04-06T18:46:14.831Z,5.82
2023-04-06T18:48:42.232Z,6.50
2023-04-06T18:51:08.959Z,7.60
2023-04-06T18:53:37.302Z,6.82
2023-04-06T18:56:16.550Z,6.15
2023-04-06T18:58:43.437Z,6.47
2023-04-06T19:01:10.159Z,6.15
2023-04-06T19:03:37.543Z,5.72
2023-04-06T19:06:07.316Z,5.93
2023-04-06T19:08:33.777Z,6.45
2023-04-06T19:11:05.898Z,6.20
2023-04-06T19:13:32.562Z,6.13
2023-04-06T19:15:58.971Z,6.53
2023-04-06T19:18:25.732Z,7.20
2023-04-06T19:20:52.762Z,6.75
2023-04-06T19:23:19.566Z,6.18
2023-04-06T19:25:46.012Z,6.65
2023-04-06T19:28:14.736Z,7.07
2023-04-06T19:30:42.108Z,7.18
2023-04-06T19:33:09.245Z,6.72
2023-04-06T19:35:35.770Z,7.03
2023-04-06T19:38:02.493Z,7.05
2023-04-06T19:40:28.918Z,7.07
2023-04-06T19:42:55.731Z,8.35
2023-04-06T19:45:22.171Z,7.20
2023-04-06T19:47:48.937Z,6.93
2023-04-06T19:50:15.603Z,7.38
2023-04-06T19:52:42.118Z,7.60
2023-04-06T19:55:08.892Z,7.18
2023-04-06T19:57:35.472Z,7.70
2023-04-06T20:00:02.115Z,7.78
2023-04-06T20:02:36.237Z,8.02
2023-04-06T20:05:03.042Z,8.10
2023-04-06T20:07:29.677Z,8.32
2023-04-06T20:09:56.303Z,8.30
2023-04-06T20:12:22.940Z,9.68
2023-04-06T20:14:50.874Z,9.18
2023-04-06T20:17:17.569Z,8.20
2023-04-06T20:19:43.996Z,8.55
2023-04-06T20:22:10.805Z,8.98
2023-04-06T20:24:37.252Z,8.82
2023-04-06T20:27:04.205Z,10.05
2023-04-06T20:29:30.757Z,10.45
2023-04-06T20:31:58.460Z,10.68
2023-04-06T20:34:28.647Z,9.82
2023-04-06T20:36:56.359Z,9.90
2023-04-06T20:39:23.939Z,10.05
2023-04-06T20:41:51.495Z,9.75
2023-04-06T20:44:19.113Z,9.65
2023-04-06T20:46:45.927Z,9.02
2023-04-06T20:49:12.780Z,8.90
2023-04-06T20:51:39.282Z,9.98
2023-04-06T20:54:05.831Z,9.00
2023-04-06T20:56:32.314Z,9.35
2023-04-06T20:58:59.787Z,9.90
2023-04-06T21:01:27.347Z,9.75
2023-04-06T21:03:54.136Z,9.73
2023-04-06T21:06:21.693Z,9.70
2023-04-06T21:08:48.177Z,9.50
2023-04-06T21:11:14.748Z,9.15
2023-04-06T21:13:41.276Z,9.70
2023-04-06T21:16:07.973Z,9.60
2023-04-06T21:18:34.484Z,9.13
2023-04-06T21:21:01.219Z,9.55
2023-04-06T21:23:27.739Z,9.68
2023-04-06T21:25:57.353Z,9.75
2023-04-06T21:28:25.401Z,10.23
2023-04-06T21:30:53.165Z,9.85
2023-04-06T21:33:20.449Z,10.07
2023-04-06T21:35:46.863Z,10.02
2023-04-06T21:38:13.943Z,9.50
2023-04-06T21:40:40.566Z,9.45
2023-04-06T21:43:07.075Z,9.48
2023-04-06T21:45:33.621Z,9.93
2023-04-06T21:48:00.411Z,10.00
2023-04-06T21:50:26.964Z,10.23
2023-04-06T21:52:53.721Z,8.82
2023-04-06T21:55:20.743Z,9.93
2023-04-06T21:57:47.154Z,10.88
2023-04-06T22:00:14.191Z,12.10
2023-04-06T22:02:45.576Z,10.52
2023-04-06T22:05:12.870Z,10.77
2023-04-06T22:07:39.385Z,9.88
2023-04-06T22:10:06.403Z,10.07
2023-04-06T22:12:32.898Z,10.20
2023-04-06T22:14:59.889Z,10.52
2023-04-06T22:17:27.256Z,9.40
2023-04-06T22:19:54.084Z,9.38
2023-04-06T22:22:20.786Z,9.38
2023-04-06T22:24:47.387Z,9.32
2023-04-06T22:27:14.146Z,9.85
2023-04-06T22:29:40.741Z,10.45
2023-04-06T22:32:07.320Z,8.95
2023-04-06T22:34:33.787Z,9.35
2023-04-06T22:37:00.459Z,10.93
2023-04-06T22:39:26.974Z,9.70
2023-04-06T22:41:53.625Z,9.98
2023-04-06T22:44:20.309Z,9.05
2023-04-06T22:46:46.922Z,8.73
2023-04-06T22:49:13.681Z,8.65
2023-04-06T22:51:41.898Z,8.52
2023-04-06T22:54:12.502Z,8.88
2023-04-06T22:59:05.441Z,8.70
2023-04-06T23:01:32.171Z,7.95
2023-04-06T23:03:58.933Z,7.00
2023-04-06T23:06:27.405Z,8.05
2023-04-06T23:08:53.910Z,7.65
2023-04-06T23:11:21.185Z,8.23
2023-04-06T23:13:47.768Z,8.13
2023-04-06T23:16:14.316Z,8.30
2023-04-06T23:18:40.868Z,7.57
2023-04-06T23:21:07.996Z,8.60
2023-04-06T23:23:34.578Z,8.00
2023-04-06T23:26:01.213Z,7.85
2023-04-06T23:28:27.782Z,7.75
2023-04-06T23:30:54.323Z,7.47
2023-04-06T23:33:20.875Z,7.47
2023-04-06T23:35:47.438Z,7.50
2023-04-06T23:38:14.091Z,7.80
2023-04-06T23:40:40.787Z,8.23
2023-04-06T23:43:07.454Z,7.95
2023-04-06T23:45:33.924Z,7.15
2023-04-06T23:48:00.649Z,7.28
2023-04-06T23:50:27.103Z,7.78
2023-04-06T23:52:53.753Z,8.30
2023-04-06T23:55:20.318Z,8.40
2023-04-06T23:57:46.902Z,7.93
